Valois, New York
Current Conditions -  °F | °C
As of 8:27 AM on Thursday 30 Oct 2014 (Local Time) from KPEO Reporting Station
Overcast Overcast  
Wind Chill: 37°   Ceiling: 3200
Heat Index: 44°   Visibility: 10mi
Dew Point: 35°   Wind: 14mph
Humidity: 71%   Direction: 270°W
Pressure: 30.03"   Gusts: 20mph
Location:  42.4947°N, 76.8774°W
Report Text: KPEO 301227Z AUTO 27012G17KT 10SM SCT025 OVC032 07/02 A3003 RMK AO2 T00670017
Loading
Personal Weather Stations






























Interactive Weather Map
Tropical Storm Tracking
New forecast layout! Learn more

10-Day Weather Forecast

Advertisements
Track Severe Weather on mobile